Terminal Aerodrome Forecast
Issued by NWS Louisville, KY

Home | Current Version | Previous Version | Text Only | Print | Product List | Glossary On
Versions: 1 2 3 4 5 6 7 8 9 10 11 12 13 14
000
FTUS43 KLMK 250500 RRA
TAFSDF
TAF
KSDF 250544Z 2506/2612 14006KT P6SM VCSH BKN050
     FM251000 12008KT 4SM -SHRA VCTS BKN015CB
     FM251500 09009KT P6SM VCSH BKN015
      TEMPO 2515/2519 BKN009
     FM252300 06007KT P6SM VCTS BKN015CB
     FM260300 04013KT P6SM VCSH BKN012=

USA.gov is the U.S. government's official web portal to all federal, state and local government web resources and services.